Time;durP1;ratioP1;P1;durP2;ratioP2;P2;SDS_P1;SDS_P2;PMS_P1;PMS_P2;Temp;Humidity;BMP_temperature;BMP_pressure;BME280_temperature;BME280_humidity;BME280_pressure;Samples;Min_cycle;Max_cycle;Signal;HPM_P1;HPM_P2
2021/07/22 00:01:25;;;;;;;;;17.25;15.75;;;;;27.86;37.83;101808.59;4997371;28;46459;-82
2021/07/22 00:03:51;;;;;;;;;16.00;15.00;;;;;27.81;37.50;101800.69;4997654;28;45264;-82
2021/07/22 00:06:16;;;;;;;;;16.25;15.25;;;;;27.78;37.70;101803.41;4997591;28;45416;-83
2021/07/22 00:08:42;;;;;;;;;17.00;15.75;;;;;27.75;37.84;101806.09;4997927;28;45589;-85
2021/07/22 00:11:08;;;;;;;;;19.00;16.25;;;;;27.72;37.98;101799.91;4996799;28;45621;-85
2021/07/22 00:13:34;;;;;;;;;16.75;14.00;;;;;27.70;37.70;101804.38;4997413;28;45415;-85
2021/07/22 00:15:59;;;;;;;;;19.00;15.75;;;;;27.67;38.14;101801.72;4997798;28;45419;-84
2021/07/22 00:18:28;;;;;;;;;13.50;13.50;;;;;27.63;38.13;101799.13;4997690;28;45510;-83
2021/07/22 00:20:54;;;;;;;;;16.75;14.75;;;;;27.64;38.54;101802.66;4996724;28;45316;-85
2021/07/22 00:23:19;;;;;;;;;17.00;17.00;;;;;27.61;37.89;101803.56;4997415;28;45310;-84
2021/07/22 00:25:45;;;;;;;;;16.75;15.50;;;;;27.59;38.37;101796.53;4997122;28;45364;-82
2021/07/22 00:28:11;;;;;;;;;16.75;14.50;;;;;27.57;38.17;101812.47;4997273;28;45899;-86
2021/07/22 00:30:39;;;;;;;;;19.75;16.00;;;;;27.53;38.32;101804.53;4997469;28;45388;-83
2021/07/22 00:33:05;;;;;;;;;16.25;14.00;;;;;27.45;38.26;101809.94;4995625;28;45729;-83
2021/07/22 00:35:31;;;;;;;;;17.25;16.75;;;;;27.42;38.06;101808.16;4997287;28;45355;-83
2021/07/22 00:37:57;;;;;;;;;17.75;15.25;;;;;27.40;38.27;101811.75;4997179;28;45313;-83
2021/07/22 00:40:22;;;;;;;;;14.50;14.00;;;;;27.38;38.06;101809.06;4997416;28;46231;-83
2021/07/22 00:42:59;;;;;;;;;17.75;17.25;;;;;27.37;38.21;101806.44;4999915;28;45454;-85
2021/07/22 00:45:25;;;;;;;;;17.50;15.25;;;;;27.32;38.44;101811.81;4995897;28;45254;-82
2021/07/22 00:47:51;;;;;;;;;16.75;16.50;;;;;27.30;39.14;101818.91;4997555;28;45297;-85
2021/07/22 00:50:17;;;;;;;;;16.75;16.25;;;;;27.28;38.39;101815.38;4996801;28;45439;-83
2021/07/22 00:52:43;;;;;;;;;16.25;14.75;;;;;27.24;38.89;101813.66;4996579;28;45407;-83
2021/07/22 00:55:08;;;;;;;;;16.00;14.50;;;;;27.22;39.06;101816.31;4996490;28;45351;-84
2021/07/22 00:57:34;;;;;;;;;19.00;19.00;;;;;27.21;39.06;101806.59;4996785;28;45538;-85
2021/07/22 00:59:59;;;;;;;;;17.25;16.75;;;;;27.18;38.70;101810.16;4996382;28;45260;-85
2021/07/22 01:02:25;;;;;;;;;17.50;16.75;;;;;27.18;38.93;101823.44;4996618;28;45376;-84
2021/07/22 01:04:51;;;;;;;;;17.50;16.25;;;;;27.13;38.54;101806.66;4996813;28;45379;-83
2021/07/22 01:07:16;;;;;;;;;19.00;15.75;;;;;27.08;39.05;101811.13;4998959;28;45241;-83
2021/07/22 01:09:42;;;;;;;;;18.00;15.25;;;;;27.01;39.11;101812.94;4998772;28;46412;-85
2021/07/22 01:12:07;;;;;;;;;16.75;14.75;;;;;26.96;39.64;101814.78;4996283;28;45249;-83
2021/07/22 01:14:33;;;;;;;;;18.25;16.00;;;;;26.95;39.24;101812.09;4996557;28;45234;-84
2021/07/22 01:17:00;;;;;;;;;18.00;17.00;;;;;26.90;39.54;101811.28;4995826;28;45565;-84
2021/07/22 01:19:25;;;;;;;;;21.75;16.50;;;;;26.87;39.26;101813.06;4996218;28;45796;-84
2021/07/22 01:21:51;;;;;;;;;19.00;17.25;;;;;26.86;40.21;101807.75;4996248;28;45432;-83
2021/07/22 01:24:17;;;;;;;;;16.50;15.75;;;;;26.82;39.92;101811.31;4996638;28;45334;-85
2021/07/22 01:26:42;;;;;;;;;15.25;15.25;;;;;26.81;39.71;101812.22;4996610;28;45565;-83
2021/07/22 01:29:08;;;;;;;;;18.00;18.00;;;;;26.79;40.15;101811.34;4995901;28;45767;-85
2021/07/22 01:31:33;;;;;;;;;17.75;16.50;;;;;26.80;39.72;101815.75;4998015;28;45366;-83
2021/07/22 01:33:59;;;;;;;;;14.25;13.75;;;;;26.78;39.70;101815.78;4996860;28;45373;-85
2021/07/22 01:36:25;;;;;;;;;19.25;16.50;;;;;26.80;40.23;101813.09;4997415;28;45543;-85
2021/07/22 01:38:51;;;;;;;;;16.50;16.00;;;;;26.82;40.02;101803.34;4996906;28;45412;-84
2021/07/22 01:41:17;;;;;;;;;18.75;15.00;;;;;26.83;40.30;101811.34;4995153;28;45361;-84
2021/07/22 01:43:42;;;;;;;;;18.25;16.75;;;;;26.81;40.08;101810.47;4996315;28;45185;-85
2021/07/22 01:46:08;;;;;;;;;16.75;16.75;;;;;26.79;40.30;101811.34;4996253;28;45567;-86
2021/07/22 01:48:33;;;;;;;;;20.50;17.75;;;;;26.76;40.55;101808.69;4995888;28;46079;-85
2021/07/22 01:50:59;;;;;;;;;18.50;16.50;;;;;26.74;39.92;101803.38;4995695;28;45403;-85
2021/07/22 01:53:25;;;;;;;;;17.25;16.75;;;;;26.73;40.33;101805.16;4994733;28;45283;-84
2021/07/22 01:55:50;;;;;;;;;17.00;15.50;;;;;26.73;40.16;101804.25;4995043;28;45786;-84
2021/07/22 01:58:16;;;;;;;;;21.00;16.75;;;;;26.70;40.13;101805.16;4995963;28;46061;-86
2021/07/22 02:00:41;;;;;;;;;20.50;19.75;;;;;26.67;39.87;101797.22;4997744;28;45324;-83
2021/07/22 02:03:07;;;;;;;;;18.25;15.25;;;;;26.66;40.47;101814.06;4997079;28;45442;-83
2021/07/22 02:05:33;;;;;;;;;18.00;14.75;;;;;26.61;40.12;101804.38;4994961;28;45359;-83
2021/07/22 02:07:58;;;;;;;;;16.75;15.00;;;;;26.55;40.42;101798.19;4994191;28;45418;-85
2021/07/22 02:10:24;;;;;;;;;18.75;17.50;;;;;26.55;40.68;101800.84;4995759;28;45319;-83
2021/07/22 02:12:50;;;;;;;;;17.25;15.00;;;;;26.52;40.71;101798.19;4996214;28;45364;-84
2021/07/22 02:15:15;;;;;;;;;16.75;16.25;;;;;26.45;40.53;101799.13;4996285;28;45653;-85
2021/07/22 02:17:41;;;;;;;;;17.00;15.50;;;;;26.43;41.12;101798.25;4995961;28;45311;-85
2021/07/22 02:20:07;;;;;;;;;17.00;16.50;;;;;26.41;40.34;101792.97;4994467;28;45348;-85
2021/07/22 02:22:33;;;;;;;;;18.25;17.25;;;;;26.41;40.92;101800.03;4996044;28;45237;-83
2021/07/22 02:24:58;;;;;;;;;18.75;18.50;;;;;26.39;40.80;101797.41;4996177;28;45196;-85
2021/07/22 02:27:24;;;;;;;;;17.25;16.50;;;;;26.39;41.29;101801.84;4997890;28;46235;-84
2021/07/22 02:29:49;;;;;;;;;19.50;18.50;;;;;26.39;40.95;101802.69;4999565;28;45233;-84
2021/07/22 02:32:15;;;;;;;;;18.75;17.50;;;;;26.39;41.14;101800.06;4999028;28;45375;-84
2021/07/22 02:34:41;;;;;;;;;15.00;13.00;;;;;26.32;41.00;101798.31;4999317;28;45527;-84
2021/07/22 02:37:06;;;;;;;;;17.50;15.00;;;;;26.30;40.79;101796.53;4997338;28;48031;-85
2021/07/22 02:39:35;;;;;;;;;18.75;17.00;;;;;26.29;40.84;101795.69;4999054;28;45364;-84
2021/07/22 02:42:01;;;;;;;;;21.50;17.50;;;;;26.29;40.78;101798.34;5000851;28;45388;-84
2021/07/22 02:44:26;;;;;;;;;22.00;20.00;;;;;26.29;40.98;101802.78;5001686;28;45248;-84
2021/07/22 02:46:52;;;;;;;;;18.50;16.50;;;;;26.28;40.93;101804.53;4998493;28;46231;-84
2021/07/22 02:49:18;;;;;;;;;18.50;14.75;;;;;26.20;40.77;101801.03;4998881;28;45259;-84
2021/07/22 02:51:43;;;;;;;;;17.75;17.75;;;;;26.14;41.30;101809.00;4998853;28;45269;-86
2021/07/22 02:54:11;;;;;;;;;18.50;17.75;;;;;26.08;41.48;101805.47;4999227;28;45229;-85
2021/07/22 02:56:37;;;;;;;;;16.75;16.25;;;;;26.05;41.87;101797.53;4998989;28;45507;-84
2021/07/22 02:59:02;;;;;;;;;17.00;17.00;;;;;26.05;41.38;101809.91;4998288;28;45446;-84
2021/07/22 03:01:28;;;;;;;;;19.50;15.25;;;;;26.03;41.67;101804.59;4998543;28;45342;-84
2021/07/22 03:03:54;;;;;;;;;20.25;17.00;;;;;26.00;41.49;101807.28;4998484;28;45467;-84
2021/07/22 03:06:19;;;;;;;;;17.50;16.25;;;;;25.92;42.29;101803.75;4998636;28;46442;-87
2021/07/22 03:08:45;;;;;;;;;17.75;17.25;;;;;25.87;41.77;101814.38;4998289;28;45433;-85
2021/07/22 03:11:11;;;;;;;;;18.25;17.00;;;;;25.83;41.82;101819.69;4998122;28;45520;-84
2021/07/22 03:13:38;;;;;;;;;20.00;18.75;;;;;25.81;42.46;101811.75;4998632;28;45257;-84
2021/07/22 03:16:05;;;;;;;;;22.00;18.25;;;;;25.80;42.37;101813.53;4997871;28;45920;-85
2021/07/22 03:18:30;;;;;;;;;21.75;18.75;;;;;25.78;42.02;101811.75;4998908;28;45878;-84
2021/07/22 03:20:56;;;;;;;;;17.75;17.50;;;;;25.79;42.40;101810.88;4999557;28;45349;-85
2021/07/22 03:23:21;;;;;;;;;17.75;16.75;;;;;25.79;41.98;101809.13;4997221;28;45313;-85
2021/07/22 03:25:47;;;;;;;;;19.25;15.25;;;;;25.78;42.13;101817.06;4998467;28;46532;-86
2021/07/22 03:28:13;;;;;;;;;20.00;17.25;;;;;25.76;42.89;101809.13;4997974;28;45427;-86
2021/07/22 03:30:40;;;;;;;;;17.00;15.00;;;;;25.75;42.20;101809.13;4998287;28;45440;-84
2021/07/22 03:33:06;;;;;;;;;19.25;14.75;;;;;25.74;42.91;101802.06;4998299;28;45313;-85
2021/07/22 03:35:32;;;;;;;;;19.50;17.25;;;;;25.77;42.49;101802.03;4998990;28;46385;-86
2021/07/22 03:38:00;;;;;;;;;21.75;18.50;;;;;25.77;42.14;101812.63;4998720;28;45396;-84
2021/07/22 03:40:26;;;;;;;;;17.00;13.00;;;;;25.75;41.98;101811.78;5001040;28;45291;-85
2021/07/22 03:42:53;;;;;;;;;20.75;18.25;;;;;25.73;42.04;101808.25;4998503;28;45628;-83
2021/07/22 03:45:19;;;;;;;;;19.75;16.50;;;;;25.63;42.28;101802.97;4999454;28;46449;-86
2021/07/22 03:47:45;;;;;;;;;17.50;14.50;;;;;25.63;42.23;101810.03;4999953;28;45434;-86
2021/07/22 03:50:10;;;;;;;;;20.75;16.50;;;;;25.60;42.17;101799.41;4998260;28;45494;-85
2021/07/22 03:52:36;;;;;;;;;19.00;18.25;;;;;25.59;42.71;101809.16;4998258;28;45468;-86
2021/07/22 03:55:01;;;;;;;;;16.50;16.50;;;;;25.52;43.05;101799.47;4997567;28;45309;-85
2021/07/22 03:57:27;;;;;;;;;20.50;18.75;;;;;25.50;42.64;101811.84;4997583;28;45257;-86
2021/07/22 03:59:52;;;;;;;;;20.75;16.75;;;;;25.49;42.78;101815.38;4997652;28;45213;-86
2021/07/22 04:02:18;;;;;;;;;22.00;19.50;;;;;25.49;42.50;101810.06;4998165;28;45312;-84
2021/07/22 04:04:44;;;;;;;;;16.25;16.00;;;;;25.45;42.37;101811.84;4997684;28;45663;-85
2021/07/22 04:07:09;;;;;;;;;20.25;17.50;;;;;25.45;43.14;101814.50;4997318;28;45388;-84
2021/07/22 04:09:35;;;;;;;;;19.75;16.25;;;;;25.43;42.39;101813.59;4997614;28;45521;-85
2021/07/22 04:12:01;;;;;;;;;21.25;18.50;;;;;25.43;42.51;101810.09;4998421;28;45512;-85
2021/07/22 04:14:26;;;;;;;;;15.25;14.00;;;;;25.42;42.53;101806.53;4999441;28;45456;-85
2021/07/22 04:16:52;;;;;;;;;18.25;18.25;;;;;25.40;42.50;101799.44;4997122;28;45461;-84
2021/07/22 04:19:17;;;;;;;;;18.50;17.50;;;;;25.33;42.98;101806.50;4997590;28;45350;-86
2021/07/22 04:21:43;;;;;;;;;15.25;15.00;;;;;25.31;42.82;101817.13;4997716;28;45561;-85
2021/07/22 04:24:08;;;;;;;;;20.00;16.75;;;;;25.30;43.36;101814.47;4996936;28;46096;-85
2021/07/22 04:26:34;;;;;;;;;19.50;16.75;;;;;25.28;42.59;101810.91;4997676;28;45494;-84
2021/07/22 04:28:59;;;;;;;;;20.00;16.75;;;;;25.28;42.90;101813.56;4998898;28;45337;-84
2021/07/22 04:31:25;;;;;;;;;18.75;17.00;;;;;25.28;43.01;101816.22;4997390;28;45490;-84
2021/07/22 04:33:51;;;;;;;;;20.25;17.00;;;;;25.24;43.18;101811.81;4997108;28;46120;-85
2021/07/22 04:36:16;;;;;;;;;23.00;20.00;;;;;25.18;43.35;101812.72;4997254;28;45321;-83
2021/07/22 04:38:42;;;;;;;;;14.00;13.75;;;;;25.14;43.39;101822.44;4995891;28;45270;-82
2021/07/22 04:41:08;;;;;;;;;18.50;17.75;;;;;25.12;43.27;101821.53;4997651;28;45219;-82
2021/07/22 04:43:34;;;;;;;;;19.00;19.00;;;;;25.06;43.20;101823.31;4996955;28;46417;-83
2021/07/22 04:46:06;;;;;;;;;22.25;19.50;;;;;25.04;43.42;101826.81;4996661;28;45261;-83
2021/07/22 04:48:32;;;;;;;;;23.00;20.00;;;;;25.05;43.70;101825.09;4996964;28;45294;-83
2021/07/22 04:51:04;;;;;;;;;19.00;18.00;;;;;25.05;43.77;101827.72;4996875;28;45295;-84
2021/07/22 04:53:29;;;;;;;;;21.00;19.00;;;;;25.04;43.18;101831.25;4995829;28;45996;-83
2021/07/22 04:55:55;;;;;;;;;21.00;18.25;;;;;25.01;43.04;101829.47;4996187;28;45394;-84
2021/07/22 04:58:21;;;;;;;;;20.00;18.75;;;;;25.01;43.26;101834.75;4996883;28;45325;-82
2021/07/22 05:00:46;;;;;;;;;17.50;16.00;;;;;25.03;43.46;101826.84;4997350;28;45288;-83
2021/07/22 05:03:12;;;;;;;;;18.75;15.75;;;;;25.06;43.49;101842.72;4996353;28;46578;-82
2021/07/22 05:05:38;;;;;;;;;18.50;15.50;;;;;25.09;43.14;101842.72;4998293;28;45352;-85
2021/07/22 05:08:04;;;;;;;;;20.00;19.50;;;;;25.11;43.19;101838.31;4997045;28;45271;-83
2021/07/22 05:10:29;;;;;;;;;20.75;18.50;;;;;25.11;43.27;101842.72;4996739;28;45447;-83
2021/07/22 05:12:59;;;;;;;;;25.00;20.50;;;;;25.12;43.26;101841.84;4995946;28;46294;-84
2021/07/22 05:15:25;;;;;;;;;19.75;18.00;;;;;25.14;43.52;101838.31;4996321;28;45683;-83
2021/07/22 05:17:51;;;;;;;;;22.50;20.25;;;;;25.14;43.03;101848.94;4996407;28;45360;-82
2021/07/22 05:20:17;;;;;;;;;29.00;21.25;;;;;25.13;42.82;101844.50;4997158;28;45385;-84
2021/07/22 05:22:42;;;;;;;;;22.25;20.75;;;;;25.14;43.46;101846.28;4996137;28;46052;-84
2021/07/22 05:25:09;;;;;;;;;31.25;23.00;;;;;25.16;43.52;101844.50;4996041;28;45246;-84
2021/07/22 05:27:35;;;;;;;;;20.50;15.50;;;;;25.18;42.82;101848.03;5000646;28;45435;-83
2021/07/22 05:30:00;;;;;;;;;19.25;17.00;;;;;25.17;43.11;101842.75;5036512;28;46472;-84
2021/07/22 05:32:26;;;;;;;;;17.00;17.00;;;;;25.19;42.89;101848.94;5006010;28;46046;-83
2021/07/22 05:34:52;;;;;;;;;18.75;17.50;;;;;25.19;43.07;101848.94;5010345;28;45579;-81
2021/07/22 05:37:17;;;;;;;;;20.00;19.00;;;;;25.19;42.44;101846.28;5011407;28;45467;-84
2021/07/22 05:39:43;;;;;;;;;18.00;17.50;;;;;25.19;42.48;101851.59;5007480;28;45528;-84
2021/07/22 05:42:10;;;;;;;;;19.75;18.50;;;;;25.18;42.45;101842.72;4994357;28;46500;-82
2021/07/22 05:44:35;;;;;;;;;18.75;18.50;;;;;25.24;42.52;101849.81;4996101;28;45800;-83
2021/07/22 05:47:01;;;;;;;;;18.75;17.00;;;;;25.28;42.70;101848.94;4996281;28;45261;-82
2021/07/22 05:49:27;;;;;;;;;17.75;16.25;;;;;25.31;42.65;101842.72;4996462;28;45559;-84
2021/07/22 05:51:53;;;;;;;;;17.25;16.25;;;;;25.29;42.40;101847.16;4996477;28;45996;-82
2021/07/22 05:54:18;;;;;;;;;24.00;19.00;;;;;25.28;42.73;101842.72;4996602;28;45328;-86
2021/07/22 05:56:44;;;;;;;;;26.50;21.25;;;;;25.29;42.12;101848.06;5003714;28;45339;-80
2021/07/22 05:59:09;;;;;;;;;21.50;21.50;;;;;25.31;42.65;101843.63;5003623;28;45364;-82
2021/07/22 06:01:36;;;;;;;;;27.25;20.75;;;;;25.33;42.45;101846.28;5009536;28;46274;-83
2021/07/22 06:04:02;;;;;;;;;18.75;17.00;;;;;25.31;42.34;101846.28;5004874;28;45978;-82
2021/07/22 06:06:27;;;;;;;;;22.25;18.50;;;;;25.34;42.74;101840.97;5007207;28;45490;-83
2021/07/22 06:08:54;;;;;;;;;20.00;16.50;;;;;25.39;42.00;101840.09;5023085;28;45447;-91
2021/07/22 06:11:20;;;;;;;;;23.25;20.25;;;;;25.43;41.94;101844.56;5004568;28;45427;-81
2021/07/22 06:13:45;;;;;;;;;20.00;17.75;;;;;25.44;41.86;101843.63;5012940;28;45408;-81
2021/07/22 06:16:14;;;;;;;;;20.75;19.25;;;;;25.46;42.18;101849.81;5017603;28;45527;-82
2021/07/22 06:18:41;;;;;;;;;20.75;17.00;;;;;25.44;42.31;101851.59;5004446;28;45332;-84
2021/07/22 06:21:12;;;;;;;;;19.75;19.50;;;;;25.45;42.06;101846.31;5004362;28;46884;-84
2021/07/22 06:23:37;;;;;;;;;23.00;20.50;;;;;25.44;41.96;101838.34;4999300;28;45774;-85
2021/07/22 06:26:03;;;;;;;;;25.75;23.00;;;;;25.46;41.54;101845.44;4998850;28;45652;-84
2021/07/22 06:28:29;;;;;;;;;19.50;16.25;;;;;25.49;41.76;101844.53;4997362;28;45622;-84
2021/07/22 06:30:55;;;;;;;;;18.25;17.25;;;;;25.53;41.45;101845.41;4997688;28;45461;-85
2021/07/22 06:33:22;;;;;;;;;21.25;18.75;;;;;25.52;41.49;101848.94;4997978;28;45701;-84
2021/07/22 06:35:48;;;;;;;;;19.25;17.50;;;;;25.51;41.87;101840.13;4997375;28;45519;-85
2021/07/22 06:38:14;;;;;;;;;19.25;18.25;;;;;25.54;41.13;101840.09;4999184;28;45607;-83
2021/07/22 06:40:41;;;;;;;;;25.25;17.75;;;;;25.58;41.49;101844.50;4998615;28;45441;-85
2021/07/22 06:43:08;;;;;;;;;19.25;17.00;;;;;25.58;41.15;101839.22;4980581;28;45709;-85
2021/07/22 06:45:34;;;;;;;;;26.25;21.25;;;;;25.62;41.23;101829.47;4998972;28;45352;-83
2021/07/22 06:48:02;;;;;;;;;20.00;18.00;;;;;25.68;40.66;101839.19;4999192;28;45610;-85
2021/07/22 06:50:27;;;;;;;;;20.25;18.50;;;;;25.73;40.62;101840.94;4999030;28;45434;-85
2021/07/22 06:52:53;;;;;;;;;16.50;16.00;;;;;25.77;40.31;101837.41;4997384;28;45685;-85
2021/07/22 06:55:19;;;;;;;;;22.25;19.00;;;;;25.78;41.06;101838.28;4999095;28;45448;-84
2021/07/22 06:57:44;;;;;;;;;20.00;18.00;;;;;25.79;40.83;101840.97;4998954;28;45745;-85
2021/07/22 07:00:11;;;;;;;;;24.50;24.25;;;;;25.83;40.30;101841.81;4999271;28;45354;-85
2021/07/22 07:02:36;;;;;;;;;20.25;18.00;;;;;25.83;40.96;101838.28;5000251;28;45715;-84
2021/07/22 07:05:02;;;;;;;;;19.75;17.00;;;;;25.87;40.67;101840.03;4999094;28;45408;-84
2021/07/22 07:07:28;;;;;;;;;21.00;18.75;;;;;25.88;40.38;101842.69;5001440;28;45579;-82
2021/07/22 07:09:53;;;;;;;;;20.75;17.00;;;;;25.90;40.45;101837.41;5003771;28;46141;-84
2021/07/22 07:12:21;;;;;;;;;20.75;18.00;;;;;25.92;39.82;101841.78;5005886;28;45364;-84
2021/07/22 07:14:47;;;;;;;;;19.25;17.25;;;;;25.92;40.00;101844.44;5012119;28;45416;-84
2021/07/22 07:17:12;;;;;;;;;19.00;17.00;;;;;25.93;39.79;101848.88;5011288;28;45638;-85
2021/07/22 07:19:38;;;;;;;;;17.25;16.50;;;;;25.92;40.00;101841.78;4999775;28;45486;-84
2021/07/22 07:22:04;;;;;;;;;19.25;17.75;;;;;25.92;40.01;101840.91;4998241;28;45337;-85
2021/07/22 07:24:30;;;;;;;;;17.75;17.25;;;;;25.96;39.90;101837.34;4999268;28;45373;-84
2021/07/22 07:26:56;;;;;;;;;19.75;17.75;;;;;25.99;40.54;101845.31;4998771;28;45372;-83
2021/07/22 07:29:21;;;;;;;;;15.50;15.25;;;;;26.03;39.80;101847.06;4998630;28;45493;-81
2021/07/22 07:31:47;;;;;;;;;21.75;20.00;;;;;26.05;40.37;101847.06;5004807;28;45231;-87
2021/07/22 07:34:13;;;;;;;;;18.00;17.75;;;;;26.07;39.75;101847.97;5000623;28;45332;-83
2021/07/22 07:36:43;;;;;;;;;23.50;18.00;;;;;26.08;39.63;101852.34;4998017;28;45712;-82
2021/07/22 07:39:11;;;;;;;;;18.75;16.25;;;;;26.10;39.76;101846.19;4997079;28;45509;-83
2021/07/22 07:41:36;;;;;;;;;22.50;20.50;;;;;26.13;39.58;101847.97;4997278;28;45720;-82
2021/07/22 07:44:02;;;;;;;;;23.50;19.25;;;;;26.14;39.62;101851.47;4996655;28;45327;-83
2021/07/22 07:46:27;;;;;;;;;17.50;17.50;;;;;26.17;38.67;101855.03;4997516;28;45345;-83
2021/07/22 07:48:53;;;;;;;;;18.75;17.50;;;;;26.20;39.41;101846.16;4996597;28;46000;-81
2021/07/22 07:51:18;;;;;;;;;15.75;15.75;;;;;26.21;38.82;101851.47;4997557;28;45205;-82
2021/07/22 07:53:44;;;;;;;;;25.50;22.00;;;;;26.23;38.37;101849.69;4997329;28;45320;-83
2021/07/22 07:56:10;;;;;;;;;19.50;17.75;;;;;26.26;38.19;101854.09;4997052;28;45506;-83
2021/07/22 07:58:35;;;;;;;;;19.50;18.00;;;;;26.25;38.63;101849.66;4997049;28;46518;-81
2021/07/22 08:01:01;;;;;;;;;21.00;18.75;;;;;26.24;38.60;101832.88;4996875;28;45301;-82
2021/07/22 08:03:27;;;;;;;;;19.75;19.75;;;;;26.28;38.70;101839.03;4997025;28;45316;-82
2021/07/22 08:05:53;;;;;;;;;20.00;19.25;;;;;26.29;38.67;101832.84;4997165;28;45436;-81
2021/07/22 08:08:19;;;;;;;;;21.00;18.00;;;;;26.30;38.50;101825.75;5000721;28;45727;-82
2021/07/22 08:10:45;;;;;;;;;17.25;16.25;;;;;26.33;37.73;101833.72;4996724;28;45475;-81
2021/07/22 08:13:11;;;;;;;;;15.75;15.75;;;;;26.35;38.11;101840.78;4996767;28;45474;-81
2021/07/22 08:15:40;;;;;;;;;19.00;16.50;;;;;26.34;37.62;101836.38;4997021;28;45559;-81
2021/07/22 08:18:06;;;;;;;;;17.00;15.00;;;;;26.38;37.80;101829.28;4996226;28;45973;-81
2021/07/22 08:20:31;;;;;;;;;15.75;14.50;;;;;26.41;37.66;101837.22;4997468;28;45342;-80
2021/07/22 08:22:57;;;;;;;;;14.50;13.50;;;;;26.45;37.23;101828.34;4997401;28;45505;-81
2021/07/22 08:25:23;;;;;;;;;17.00;14.00;;;;;26.45;37.58;101831.00;4998387;28;45443;-80
2021/07/22 08:27:49;;;;;;;;;16.25;15.50;;;;;26.45;37.00;101830.13;4996384;28;45960;-81
2021/07/22 08:30:14;;;;;;;;;16.25;15.50;;;;;26.47;36.92;101825.66;4996057;28;45411;-82
2021/07/22 08:32:40;;;;;;;;;15.50;15.00;;;;;26.48;36.71;101838.06;4996615;28;45396;-82
2021/07/22 08:35:06;;;;;;;;;13.75;13.25;;;;;26.49;37.01;101823.91;4998053;28;45347;-82
2021/07/22 08:37:32;;;;;;;;;18.75;14.50;;;;;26.52;36.76;101842.47;4998785;28;45500;-82
2021/07/22 08:40:01;;;;;;;;;22.25;18.50;;;;;26.53;37.23;101831.84;4995598;28;45256;-82
2021/07/22 08:42:27;;;;;;;;;18.00;15.75;;;;;26.56;36.67;101831.81;4996251;28;45601;-82
2021/07/22 08:44:54;;;;;;;;;21.50;16.50;;;;;26.58;36.98;101835.38;4996170;28;45336;-82
2021/07/22 08:47:20;;;;;;;;;21.75;20.00;;;;;26.59;36.65;101836.22;4994973;28;46414;-82
2021/07/22 08:49:46;;;;;;;;;18.50;15.00;;;;;26.57;37.21;101828.28;4996610;28;45446;-82
2021/07/22 08:52:12;;;;;;;;;21.75;19.75;;;;;26.61;36.74;101830.94;5000255;28;45476;-82
2021/07/22 08:54:39;;;;;;;;;19.75;16.75;;;;;26.55;36.82;101832.72;4996256;28;45317;-80
2021/07/22 08:57:17;;;;;;;;;22.75;19.25;;;;;26.60;37.32;101830.03;4994181;28;47028;-82
2021/07/22 08:59:42;;;;;;;;;21.25;19.00;;;;;26.65;36.77;101824.69;4996521;28;45515;-83
2021/07/22 09:02:15;;;;;;;;;20.25;16.75;;;;;26.69;37.20;101832.63;4996361;28;45404;-81
2021/07/22 09:05:10;;;;;;;;;21.00;19.00;;;;;26.70;37.54;101834.38;4996605;28;45225;-81
2021/07/22 09:07:36;;;;;;;;;18.75;17.75;;;;;26.70;36.98;101830.88;4992368;28;46192;-83
2021/07/22 09:10:05;;;;;;;;;22.00;21.75;;;;;26.75;36.86;101834.34;4997004;28;45750;-79
2021/07/22 09:12:51;;;;;;;;;17.50;17.25;;;;;26.78;36.96;101836.16;4995608;28;45395;-80
2021/07/22 09:15:23;;;;;;;;;22.75;20.50;;;;;26.83;37.33;101842.31;4996700;28;45258;-82
2021/07/22 09:17:50;;;;;;;;;20.25;20.00;;;;;26.88;37.40;101837.88;4996012;28;46602;-80
2021/07/22 09:20:35;;;;;;;;;18.50;17.00;;;;;26.90;36.69;101836.06;4995671;28;45327;-82
2021/07/22 09:23:05;;;;;;;;;20.50;18.25;;;;;26.86;36.94;101843.19;4998115;28;45464;-83
2021/07/22 09:25:54;;;;;;;;;17.50;16.25;;;;;26.84;37.28;101833.47;5001802;28;45807;-78
2021/07/22 09:28:33;;;;;;;;;24.00;18.00;;;;;26.80;36.82;101826.38;5000521;28;45366;-80
2021/07/22 09:31:08;;;;;;;;;22.25;20.00;;;;;26.85;36.92;101838.75;5016658;28;45237;-80
2021/07/22 09:33:44;;;;;;;;;19.00;19.00;;;;;26.87;37.38;101831.66;5015767;28;45245;-82
2021/07/22 09:36:19;;;;;;;;;18.50;17.50;;;;;26.88;37.45;101828.09;5015190;28;45610;-81
2021/07/22 09:38:45;;;;;;;;;20.75;16.00;;;;;26.89;37.89;101834.28;5014130;28;46972;-81
2021/07/22 09:41:19;;;;;;;;;18.50;18.00;;;;;26.85;37.77;101830.78;5016719;28;45671;-81
2021/07/22 09:43:47;;;;;;;;;19.50;18.50;;;;;26.88;37.19;101832.56;5018793;28;45266;-81
2021/07/22 09:46:14;;;;;;;;;18.75;18.00;;;;;26.91;37.19;101832.50;5017687;28;45466;-81
2021/07/22 09:49:09;;;;;;;;;18.50;17.25;;;;;26.96;37.32;101833.38;5017857;28;45528;-81
2021/07/22 09:51:37;;;;;;;;;23.75;18.75;;;;;26.97;37.29;101829.81;5014546;28;45462;-81
2021/07/22 09:54:08;;;;;;;;;21.00;19.50;;;;;27.01;37.24;101826.22;4996784;28;45442;-81
2021/07/22 09:56:41;;;;;;;;;21.25;17.75;;;;;27.01;37.30;101826.22;4998937;28;45386;-81
2021/07/22 09:59:09;;;;;;;;;14.50;14.00;;;;;27.04;36.97;101825.34;4998439;28;45369;-80
2021/07/22 10:01:48;;;;;;;;;17.00;15.25;;;;;27.08;37.31;101815.56;5004065;28;45376;-82
2021/07/22 10:04:17;;;;;;;;;18.50;16.25;;;;;27.09;37.22;101817.34;5017636;28;45442;-81
2021/07/22 10:06:47;;;;;;;;;21.75;18.25;;;;;27.14;37.58;101812.84;5017276;28;45641;-81
2021/07/22 10:09:18;;;;;;;;;21.50;19.25;;;;;27.17;37.27;101813.69;5018492;28;46377;-80
2021/07/22 10:11:45;;;;;;;;;21.50;17.00;;;;;27.23;36.91;101817.22;5019621;28;45524;-81
2021/07/22 10:14:16;;;;;;;;;17.00;14.00;;;;;27.25;36.88;101812.78;5020972;28;45345;-81
2021/07/22 10:16:44;;;;;;;;;17.50;17.00;;;;;27.28;36.82;101813.63;5023811;28;45560;-80
2021/07/22 10:19:12;;;;;;;;;20.25;16.25;;;;;27.27;37.09;101803.88;5022064;28;46066;-79
2021/07/22 10:21:37;;;;;;;;;15.25;14.00;;;;;27.26;36.95;101799.44;5018299;28;45329;-82
2021/07/22 10:24:06;;;;;;;;;20.50;17.50;;;;;27.28;36.46;101795.00;5016675;28;45300;-80
2021/07/22 10:26:39;;;;;;;;;15.50;14.75;;;;;27.29;36.23;101793.22;5019072;28;45358;-80
2021/07/22 10:29:05;;;;;;;;;16.00;14.25;;;;;27.29;36.38;101790.56;5016741;28;46205;-80
2021/07/22 10:31:34;;;;;;;;;15.50;14.50;;;;;27.29;36.00;101794.13;5018284;28;45356;-81
2021/07/22 10:34:00;;;;;;;;;15.75;14.25;;;;;27.33;36.54;101792.31;5016559;28;45391;-80
2021/07/22 10:36:27;;;;;;;;;19.75;17.25;;;;;27.37;36.37;101783.41;5018259;28;45625;-81
2021/07/22 10:38:52;;;;;;;;;17.25;16.00;;;;;27.35;36.29;101791.38;5020254;28;46074;-80
2021/07/22 10:41:44;;;;;;;;;15.50;14.75;;;;;27.38;35.93;101770.97;5018099;28;45221;-80
2021/07/22 10:44:19;;;;;;;;;18.50;16.75;;;;;27.41;36.24;101781.59;5021229;28;45661;-80
2021/07/22 10:46:54;;;;;;;;;18.50;17.00;;;;;27.37;36.55;101782.50;5019735;28;45335;-81
2021/07/22 10:49:35;;;;;;;;;19.75;17.75;;;;;27.35;36.18;101777.22;5018017;28;46148;-81
2021/07/22 10:52:01;;;;;;;;;17.75;17.75;;;;;27.38;36.34;101776.28;5017475;28;45324;-81
2021/07/22 10:54:55;;;;;;;;;18.25;16.25;;;;;27.38;35.80;101779.81;5017956;28;45285;-81
2021/07/22 10:57:33;;;;;;;;;17.00;14.75;;;;;27.39;35.63;101773.63;5007889;28;45552;-81
2021/07/22 10:59:59;;;;;;;;;14.75;14.75;;;;;27.39;35.56;101765.63;5016062;28;46816;-81
2021/07/22 11:02:44;;;;;;;;;15.75;13.50;;;;;27.44;35.84;101770.94;5019250;28;45439;-81
2021/07/22 11:05:23;;;;;;;;;18.25;15.75;;;;;27.47;35.28;101762.94;5018609;28;45305;-80
2021/07/22 11:08:36;;;;;;;;;15.50;14.50;;;;;27.46;35.75;101761.16;5016897;28;45644;-80
2021/07/22 11:11:06;;;;;;;;;17.25;14.00;;;;;27.47;35.69;101757.63;5012560;28;46591;-80